createdAt,value
2019-04-22T00:02:12.810Z,6.15
2019-04-22T00:04:55.098Z,6.05
2019-04-22T00:07:40.322Z,6.07
2019-04-22T00:10:16.218Z,6.14
2019-04-22T00:12:49.458Z,6.09
2019-04-22T00:15:13.608Z,5.99
2019-04-22T00:17:54.852Z,6.06
2019-04-22T00:20:22.964Z,6.11
2019-04-22T00:22:52.568Z,6.09
2019-04-22T00:25:34.820Z,6.11
2019-04-22T00:28:05.051Z,6.24
2019-04-22T00:30:36.012Z,6.21
2019-04-22T00:33:17.983Z,6.32
2019-04-22T00:35:41.861Z,6.29
2019-04-22T00:41:05.890Z,6.36
2019-04-22T00:43:28.844Z,6.32
2019-04-22T00:45:49.097Z,6.31
2019-04-22T00:48:29.983Z,6.27
2019-04-22T00:51:05.778Z,6.19
2019-04-22T00:53:34.830Z,6.22
2019-04-22T00:56:14.409Z,6.38
2019-04-22T00:58:48.396Z,6.27
2019-04-22T01:03:58.404Z,6.39
2019-04-22T01:06:20.388Z,6.37
2019-04-22T01:08:57.923Z,6.33
2019-04-22T01:11:29.923Z,6.43
2019-04-22T01:13:55.291Z,6.54
2019-04-22T01:16:28.322Z,6.55
2019-04-22T01:19:00.777Z,6.44
2019-04-22T01:21:40.286Z,6.34
2019-04-22T01:24:05.865Z,6.32
2019-04-22T01:26:34.633Z,6.27
2019-04-22T01:29:05.345Z,6.39
2019-04-22T01:31:31.568Z,6.39
2019-04-22T01:34:10.272Z,6.43
2019-04-22T01:36:56.073Z,6.43
2019-04-22T01:39:33.865Z,6.49
2019-04-22T01:47:10.425Z,6.46
2019-04-22T01:49:40.166Z,6.47
2019-04-22T01:52:12.773Z,6.46
2019-04-22T01:54:48.497Z,6.46
2019-04-22T01:57:18.843Z,6.43
2019-04-22T01:59:40.401Z,6.29
2019-04-22T02:02:23.265Z,6.21
2019-04-22T02:05:02.688Z,6.18
2019-04-22T02:07:30.498Z,6.15
2019-04-22T02:09:55.134Z,6.05
2019-04-22T02:12:32.057Z,6.15
2019-04-22T02:15:06.591Z,6.10
2019-04-22T02:17:36.901Z,6.02
2019-04-22T02:20:26.762Z,6.10
2019-04-22T02:23:30.258Z,6.17
2019-04-22T02:25:54.206Z,6.03
2019-04-22T02:28:32.229Z,6.10
2019-04-22T02:36:18.604Z,6.08
2019-04-22T02:38:57.385Z,6.12
2019-04-22T02:43:51.534Z,6.15
2019-04-22T02:59:05.829Z,6.14
2019-04-22T03:16:51.269Z,6.18
2019-04-22T03:21:50.412Z,6.18
2019-04-22T03:26:59.094Z,6.23
2019-04-22T03:30:10.558Z,6.18
2019-04-22T03:32:59.338Z,6.20
2019-04-22T03:35:31.588Z,6.09
2019-04-22T03:37:34.001Z,6.21
2019-04-22T03:40:07.259Z,6.21
2019-04-22T03:42:46.149Z,6.31
2019-04-22T03:45:12.770Z,6.39
2019-04-22T03:50:24.341Z,6.46
2019-04-22T03:52:35.473Z,6.54
2019-04-22T03:55:18.110Z,6.48
2019-04-22T03:57:50.044Z,6.60
2019-04-22T04:00:32.533Z,6.68
2019-04-22T04:02:54.249Z,6.71
2019-04-22T04:08:18.392Z,6.82
2019-04-22T04:10:35.486Z,7.03
2019-04-22T04:17:59.446Z,7.29
2019-04-22T04:20:47.167Z,7.44
2019-04-22T04:23:17.117Z,7.56
2019-04-22T04:25:46.778Z,7.55
2019-04-22T04:30:57.456Z,7.81
2019-04-22T04:33:35.810Z,7.90
2019-04-22T04:35:58.719Z,8.10
2019-04-22T04:38:28.727Z,8.60
2019-04-22T04:40:57.477Z,8.80
2019-04-22T04:43:35.581Z,9.07
2019-04-22T04:46:06.380Z,9.33
2019-04-22T04:51:16.547Z,10.13
2019-04-22T04:53:47.377Z,10.05
2019-04-22T05:01:35.522Z,9.56
2019-04-22T05:06:36.862Z,9.70
2019-04-22T05:09:16.746Z,9.73
2019-04-22T05:11:43.087Z,9.67
2019-04-22T05:16:32.598Z,10.58
2019-04-22T05:24:09.633Z,11.47
2019-04-22T05:26:44.785Z,11.42
2019-04-22T05:29:12.819Z,11.83
2019-04-22T05:31:43.652Z,11.97
2019-04-22T05:34:19.578Z,11.77
2019-04-22T05:36:47.584Z,11.87
2019-04-22T05:41:48.766Z,11.41
2019-04-22T05:44:38.864Z,11.29
2019-04-22T05:46:49.919Z,11.12
2019-04-22T05:49:23.799Z,11.13
2019-04-22T05:51:54.972Z,11.07
2019-04-22T05:54:47.765Z,11.12
2019-04-22T05:57:06.622Z,11.13
2019-04-22T05:59:37.940Z,11.00
2019-04-22T06:02:18.905Z,10.81
2019-04-22T06:04:44.949Z,10.55
2019-04-22T06:07:13.768Z,10.49
2019-04-22T06:09:49.601Z,10.42
2019-04-22T06:12:18.561Z,10.47
2019-04-22T06:14:54.043Z,10.66
2019-04-22T06:17:30.745Z,10.68
2019-04-22T06:20:02.735Z,10.94
2019-04-22T06:22:51.005Z,11.87
2019-04-22T06:25:16.968Z,13.20
2019-04-22T06:27:42.992Z,14.35
2019-04-22T06:30:15.362Z,15.39
2019-04-22T06:32:42.222Z,16.53
2019-04-22T06:35:23.703Z,16.98
2019-04-22T06:38:09.720Z,17.03
2019-04-22T06:40:19.852Z,16.28
2019-04-22T06:42:58.017Z,17.13
2019-04-22T06:45:23.410Z,18.26
2019-04-22T06:50:34.389Z,18.48
2019-04-22T06:55:33.232Z,19.11
2019-04-22T06:58:05.990Z,18.35
2019-04-22T07:00:42.981Z,17.51
2019-04-22T07:05:47.478Z,19.51
2019-04-22T07:08:39.408Z,21.00
2019-04-22T07:10:50.445Z,21.75
2019-04-22T07:13:27.512Z,21.98
2019-04-22T07:18:33.040Z,23.28
2019-04-22T07:21:03.705Z,24.04
2019-04-22T07:23:33.067Z,24.65
2019-04-22T07:26:04.672Z,25.37
2019-04-22T07:28:29.966Z,25.57
2019-04-22T07:31:11.608Z,26.94
2019-04-22T07:33:45.481Z,27.36
2019-04-22T07:38:45.483Z,27.13
2019-04-22T07:41:25.217Z,27.59
2019-04-22T07:44:08.384Z,27.21
2019-04-22T07:46:26.598Z,27.27
2019-04-22T07:49:00.050Z,27.44
2019-04-22T07:51:32.970Z,27.38
2019-04-22T07:54:01.071Z,26.61
2019-04-22T07:56:40.956Z,27.19
2019-04-22T07:59:09.598Z,28.45
2019-04-22T08:01:39.884Z,29.49
2019-04-22T08:04:24.368Z,29.32
2019-04-22T08:06:46.020Z,29.72
2019-04-22T08:09:20.188Z,28.38
2019-04-22T08:11:52.240Z,26.45
2019-04-22T08:14:22.455Z,24.12
2019-04-22T08:17:00.952Z,22.28
2019-04-22T08:19:27.957Z,20.98
2019-04-22T08:22:02.742Z,20.37
2019-04-22T08:24:35.548Z,20.01
2019-04-22T08:27:04.849Z,19.54
2019-04-22T08:29:59.690Z,18.87
2019-04-22T08:32:11.158Z,19.44
2019-04-22T08:34:39.552Z,20.73
2019-04-22T08:39:40.877Z,20.75
2019-04-22T08:42:32.304Z,20.19
2019-04-22T08:45:05.850Z,19.35
2019-04-22T08:47:29.200Z,19.26
2019-04-22T08:50:04.644Z,18.83
2019-04-22T08:52:27.515Z,19.64
2019-04-22T08:55:04.369Z,22.01
2019-04-22T09:00:20.329Z,22.69
2019-04-22T09:02:38.726Z,22.09
2019-04-22T09:05:11.969Z,21.65
2019-04-22T09:07:46.951Z,20.67
2019-04-22T09:10:21.719Z,20.09
2019-04-22T09:15:26.372Z,19.48
2019-04-22T09:17:55.931Z,19.18
2019-04-22T09:20:28.425Z,18.98
2019-04-22T09:23:03.990Z,19.08
2019-04-22T09:25:36.069Z,18.59
2019-04-22T09:28:10.566Z,18.73
2019-04-22T09:30:42.930Z,18.39
2019-04-22T09:33:13.981Z,18.46
2019-04-22T09:40:52.519Z,21.30
2019-04-22T09:43:25.878Z,21.05
2019-04-22T09:45:52.801Z,21.95
2019-04-22T09:48:33.168Z,21.09
2019-04-22T09:51:00.468Z,20.24
2019-04-22T09:53:41.730Z,20.15
2019-04-22T09:56:03.789Z,20.83
2019-04-22T09:58:39.835Z,21.64
2019-04-22T10:03:53.366Z,22.27
2019-04-22T10:06:33.270Z,21.57
2019-04-22T10:13:59.764Z,19.19
2019-04-22T10:19:04.633Z,17.74
2019-04-22T10:21:43.200Z,17.94
2019-04-22T10:24:12.558Z,17.71
2019-04-22T10:26:40.925Z,17.25
2019-04-22T10:29:14.103Z,17.31
2019-04-22T10:31:43.327Z,17.38
2019-04-22T10:34:07.167Z,17.18
2019-04-22T10:36:23.702Z,17.30
2019-04-22T10:38:54.662Z,17.60
2019-04-22T10:41:26.762Z,17.92
2019-04-22T10:43:57.111Z,18.29
2019-04-22T10:46:28.323Z,18.65
2019-04-22T10:49:00.003Z,18.41
2019-04-22T10:51:32.696Z,18.53
2019-04-22T10:54:05.133Z,18.92
2019-04-22T10:56:36.930Z,19.06
2019-04-22T10:59:08.704Z,18.73
2019-04-22T11:01:40.261Z,18.26
2019-04-22T11:04:11.373Z,17.88
2019-04-22T11:06:51.858Z,17.51
2019-04-22T11:09:14.381Z,17.66
2019-04-22T11:11:54.213Z,18.00
2019-04-22T11:14:17.192Z,17.93
2019-04-22T11:16:47.754Z,17.64
2019-04-22T11:19:19.394Z,17.58
2019-04-22T11:22:01.020Z,17.44
2019-04-22T11:24:23.146Z,17.65
2019-04-22T11:26:54.808Z,18.01
2019-04-22T11:29:27.750Z,18.25
2019-04-22T11:31:58.058Z,18.68
2019-04-22T11:34:29.085Z,18.94
2019-04-22T11:37:01.050Z,18.77
2019-04-22T11:39:34.884Z,18.32
2019-04-22T11:42:04.503Z,17.71
2019-04-22T11:44:35.327Z,17.65
2019-04-22T11:47:07.575Z,17.86
2019-04-22T11:49:39.712Z,17.87
2019-04-22T11:52:14.699Z,17.88
2019-04-22T11:54:43.898Z,17.48
2019-04-22T11:57:15.150Z,17.55
2019-04-22T11:59:46.984Z,17.44
2019-04-22T12:02:23.347Z,17.24
2019-04-22T12:04:56.171Z,17.24
2019-04-22T12:07:27.023Z,17.66
2019-04-22T12:09:59.774Z,17.78
2019-04-22T12:12:30.333Z,17.73
2019-04-22T12:15:00.808Z,17.41
2019-04-22T12:17:32.053Z,17.20
2019-04-22T12:20:05.574Z,17.23
2019-04-22T12:22:35.767Z,17.27
2019-04-22T12:25:12.360Z,17.23
2019-04-22T12:27:43.607Z,17.05
2019-04-22T12:30:16.842Z,16.95
2019-04-22T12:32:48.493Z,16.98
2019-04-22T12:35:19.838Z,17.04
2019-04-22T12:37:55.526Z,17.21
2019-04-22T12:40:34.123Z,17.40
2019-04-22T12:42:57.651Z,17.36
2019-04-22T12:45:28.070Z,17.06
2019-04-22T12:47:58.350Z,16.95
2019-04-22T12:50:33.823Z,16.72
2019-04-22T12:53:08.450Z,16.60
2019-04-22T12:55:34.400Z,16.61
2019-04-22T12:58:05.428Z,16.54
2019-04-22T13:00:38.351Z,16.59
2019-04-22T13:03:09.378Z,16.58
2019-04-22T13:05:41.072Z,16.73
2019-04-22T13:08:11.842Z,16.90
2019-04-22T13:10:53.366Z,16.89
2019-04-22T13:13:15.408Z,16.98
2019-04-22T13:15:46.800Z,17.21
2019-04-22T13:18:27.674Z,17.52
2019-04-22T13:20:50.317Z,17.99
2019-04-22T13:23:22.172Z,18.13
2019-04-22T13:25:52.861Z,18.36
2019-04-22T13:28:25.106Z,18.48
2019-04-22T13:30:57.516Z,18.58
2019-04-22T13:33:28.704Z,18.63
2019-04-22T13:35:59.669Z,18.72
2019-04-22T13:38:31.173Z,18.75
2019-04-22T13:41:17.269Z,18.69
2019-04-22T13:43:34.762Z,18.54
2019-04-22T13:46:06.045Z,18.51
2019-04-22T13:51:45.175Z,18.07
2019-04-22T13:54:13.771Z,18.36
2019-04-22T13:54:36.466Z,17.80
2019-04-22T13:56:40.346Z,17.47
2019-04-22T13:58:58.702Z,17.34
2019-04-22T14:01:22.843Z,17.39
2019-04-22T14:03:58.791Z,17.41
2019-04-22T14:06:31.288Z,17.33
2019-04-22T14:09:03.376Z,17.30
2019-04-22T14:11:48.884Z,17.21
2019-04-22T14:14:09.248Z,17.16
2019-04-22T14:16:40.830Z,17.05
2019-04-22T14:19:12.015Z,17.05
2019-04-22T14:21:46.747Z,17.18
2019-04-22T14:24:15.790Z,17.36
2019-04-22T14:26:59.975Z,17.45
2019-04-22T14:29:19.697Z,17.48
2019-04-22T14:32:02.846Z,17.44
2019-04-22T14:34:22.218Z,17.34
2019-04-22T14:36:53.432Z,17.11
2019-04-22T14:39:24.105Z,17.03
2019-04-22T14:42:15.762Z,16.95
2019-04-22T14:47:19.599Z,16.83
2019-04-22T14:49:52.817Z,16.87
2019-04-22T14:52:31.098Z,16.83
2019-04-22T14:54:50.797Z,16.87
2019-04-22T14:57:08.228Z,16.86
2019-04-22T14:59:39.971Z,16.80
2019-04-22T15:02:11.797Z,16.74
2019-04-22T15:04:43.047Z,16.54
2019-04-22T15:07:14.989Z,16.44
2019-04-22T15:09:48.050Z,16.41
2019-04-22T15:12:30.248Z,16.41
2019-04-22T15:14:53.452Z,16.43
2019-04-22T15:17:34.348Z,16.54
2019-04-22T15:20:15.941Z,16.59
2019-04-22T15:22:46.509Z,16.66
2019-04-22T15:25:16.982Z,16.67
2019-04-22T15:27:47.776Z,16.71
2019-04-22T15:30:21.442Z,16.70
2019-04-22T15:32:52.017Z,16.81
2019-04-22T15:35:25.134Z,16.86
2019-04-22T15:37:57.287Z,16.79
2019-04-22T15:40:29.062Z,16.65
2019-04-22T15:42:59.798Z,16.50
2019-04-22T15:45:30.634Z,16.38
2019-04-22T15:48:04.129Z,16.28
2019-04-22T15:50:35.075Z,16.12
2019-04-22T15:53:07.785Z,15.93
2019-04-22T15:55:38.914Z,15.78
2019-04-22T15:58:10.141Z,15.63
2019-04-22T16:00:52.102Z,15.51
2019-04-22T16:03:14.450Z,15.34
2019-04-22T16:05:46.090Z,15.23
2019-04-22T16:08:17.248Z,15.06
2019-04-22T16:10:48.342Z,14.90
2019-04-22T16:13:24.435Z,14.84
2019-04-22T16:15:54.266Z,14.76
2019-04-22T16:18:26.320Z,14.71
2019-04-22T16:20:58.640Z,14.68
2019-04-22T16:23:31.992Z,14.75
2019-04-22T16:26:07.565Z,14.72
2019-04-22T16:28:39.514Z,14.67
2019-04-22T16:31:11.300Z,14.73
2019-04-22T16:33:45.707Z,14.72
2019-04-22T16:36:14.881Z,14.69
2019-04-22T16:38:46.900Z,14.66
2019-04-22T16:41:18.968Z,14.59
2019-04-22T16:43:50.844Z,14.59
2019-04-22T16:46:21.453Z,14.57
2019-04-22T16:48:51.921Z,14.47
2019-04-22T16:51:22.420Z,14.41
2019-04-22T16:53:53.942Z,14.41
2019-04-22T16:56:24.760Z,14.39
2019-04-22T16:58:56.724Z,14.41
2019-04-22T17:01:43.563Z,14.39
2019-04-22T17:04:30.352Z,14.28
2019-04-22T17:07:01.638Z,14.19
2019-04-22T17:09:32.368Z,14.17
2019-04-22T17:12:03.665Z,14.15
2019-04-22T17:14:42.001Z,14.05
2019-04-22T17:17:06.623Z,13.90
2019-04-22T17:19:37.353Z,13.80
2019-04-22T17:22:08.270Z,13.76
2019-04-22T17:24:39.587Z,13.61
2019-04-22T17:27:10.618Z,13.71
2019-04-22T17:29:41.157Z,13.71
2019-04-22T17:32:15.857Z,13.80
2019-04-22T17:34:43.764Z,13.65
2019-04-22T17:37:19.199Z,13.50
2019-04-22T17:40:04.357Z,13.55
2019-04-22T17:42:39.465Z,13.34
2019-04-22T17:45:27.060Z,13.22
2019-04-22T17:48:16.917Z,13.11
2019-04-22T17:50:57.837Z,13.03
2019-04-22T17:53:27.971Z,12.97
2019-04-22T17:55:57.490Z,12.81
2019-04-22T17:58:25.787Z,12.75
2019-04-22T18:00:53.728Z,12.59
2019-04-22T18:03:20.354Z,12.53
2019-04-22T18:05:49.600Z,12.49
2019-04-22T18:08:34.855Z,12.32
2019-04-22T18:11:06.303Z,12.20
2019-04-22T18:13:44.295Z,12.21
2019-04-22T18:16:14.542Z,12.07
2019-04-22T18:18:43.637Z,11.90
2019-04-22T18:21:16.126Z,11.85
2019-04-22T18:23:39.314Z,11.90
2019-04-22T18:26:20.460Z,11.81
2019-04-22T18:28:55.954Z,11.94
2019-04-22T18:31:23.680Z,11.86
2019-04-22T18:33:56.936Z,11.75
2019-04-22T18:36:29.300Z,11.70
2019-04-22T18:39:04.281Z,11.69
2019-04-22T18:41:34.088Z,11.73
2019-04-22T18:44:14.723Z,11.60
2019-04-22T18:46:36.971Z,11.50
2019-04-22T18:49:10.973Z,11.42
2019-04-22T18:52:00.291Z,11.42
2019-04-22T18:54:36.653Z,11.38
2019-04-22T18:57:02.750Z,11.29
2019-04-22T18:59:26.293Z,11.14
2019-04-22T19:01:52.351Z,10.97
2019-04-22T19:04:31.709Z,10.87
2019-04-22T19:07:32.554Z,10.78
2019-04-22T19:10:08.220Z,10.71
2019-04-22T19:12:38.349Z,10.54
2019-04-22T19:15:03.459Z,10.44
2019-04-22T19:17:45.929Z,10.44
2019-04-22T19:20:15.613Z,10.36
2019-04-22T19:22:45.525Z,10.26
2019-04-22T19:25:08.689Z,10.16
2019-04-22T19:27:40.709Z,10.02
2019-04-22T19:30:16.567Z,9.94
2019-04-22T19:32:51.165Z,9.78
2019-04-22T19:35:17.206Z,9.71
2019-04-22T19:37:52.258Z,9.73
2019-04-22T19:40:42.139Z,9.67
2019-04-22T19:43:02.300Z,9.60
2019-04-22T19:45:35.649Z,9.54
2019-04-22T19:48:14.087Z,9.51
2019-04-22T19:50:44.122Z,9.29
2019-04-22T19:53:17.613Z,9.31
2019-04-22T19:55:46.985Z,9.26
2019-04-22T19:58:18.490Z,9.24
2019-04-22T20:00:47.770Z,9.17
2019-04-22T20:03:49.454Z,9.04
2019-04-22T20:06:34.967Z,9.03
2019-04-22T20:09:06.017Z,9.00
2019-04-22T20:11:41.718Z,9.08
2019-04-22T20:14:12.729Z,9.02
2019-04-22T20:16:41.310Z,8.93
2019-04-22T20:19:25.449Z,8.91
2019-04-22T20:21:53.451Z,8.81
2019-04-22T20:24:11.409Z,8.75
2019-04-22T20:26:56.396Z,8.65
2019-04-22T20:29:30.754Z,8.65
2019-04-22T20:31:59.277Z,8.78
2019-04-22T20:34:38.151Z,8.68
2019-04-22T20:37:10.443Z,8.63
2019-04-22T20:39:37.963Z,8.46
2019-04-22T20:42:22.799Z,8.51
2019-04-22T20:44:46.048Z,8.44
2019-04-22T20:47:12.247Z,8.41
2019-04-22T20:49:47.491Z,8.33
2019-04-22T20:52:26.416Z,8.26
2019-04-22T20:54:51.059Z,8.29
2019-04-22T20:57:25.967Z,8.30
2019-04-22T20:59:52.228Z,8.22
2019-04-22T21:02:18.240Z,8.15
2019-04-22T21:04:49.065Z,8.07
2019-04-22T21:07:28.250Z,8.04
2019-04-22T21:10:03.956Z,8.00
2019-04-22T21:12:27.598Z,7.98
2019-04-22T21:15:16.201Z,7.89
2019-04-22T21:17:42.773Z,7.84
2019-04-22T21:20:17.285Z,7.77
2019-04-22T21:22:48.197Z,7.76
2019-04-22T21:25:15.335Z,7.87
2019-04-22T21:27:59.819Z,7.82
2019-04-22T21:30:29.146Z,7.72
2019-04-22T21:32:58.311Z,7.67
2019-04-22T21:35:47.175Z,7.64
2019-04-22T21:38:16.250Z,7.62
2019-04-22T21:40:40.053Z,7.50
2019-04-22T21:43:18.692Z,7.47
2019-04-22T21:45:43.295Z,7.42
2019-04-22T21:48:27.917Z,7.40
2019-04-22T21:53:36.189Z,7.29
2019-04-22T21:56:11.824Z,7.27
2019-04-22T21:58:31.753Z,7.22
2019-04-22T22:01:16.959Z,7.18
2019-04-22T22:03:38.895Z,7.18
2019-04-22T22:06:04.512Z,7.11
2019-04-22T22:08:45.994Z,7.09
2019-04-22T22:11:13.597Z,7.05
2019-04-22T22:13:45.370Z,6.97
2019-04-22T22:16:14.360Z,6.95
2019-04-22T22:18:57.334Z,6.93
2019-04-22T22:23:59.353Z,6.88
2019-04-22T22:26:33.600Z,6.86
2019-04-22T22:29:05.219Z,6.79
2019-04-22T22:31:41.309Z,6.75
2019-04-22T22:34:12.689Z,6.70
2019-04-22T22:36:33.587Z,6.77
2019-04-22T22:39:05.653Z,6.81
2019-04-22T22:41:21.687Z,7.00
2019-04-22T22:43:57.051Z,7.09
2019-04-22T22:46:35.556Z,7.13
2019-04-22T22:49:23.052Z,7.27
2019-04-22T22:52:00.126Z,7.43
2019-04-22T22:54:28.962Z,7.49
2019-04-22T22:57:19.537Z,7.70
2019-04-22T22:59:27.641Z,7.83
2019-04-22T23:02:04.950Z,7.88
2019-04-22T23:04:39.905Z,7.81
2019-04-22T23:07:11.511Z,7.77
2019-04-22T23:09:38.724Z,7.90
2019-04-22T23:12:28.874Z,7.98
2019-04-22T23:14:48.720Z,7.84
2019-04-22T23:17:03.103Z,7.77
2019-04-22T23:19:28.039Z,7.74
2019-04-22T23:22:05.500Z,7.70
2019-04-22T23:24:48.200Z,7.76
2019-04-22T23:27:40.285Z,7.87
2019-04-22T23:30:19.772Z,7.92
2019-04-22T23:33:01.254Z,7.91
2019-04-22T23:35:33.658Z,7.88
2019-04-22T23:38:06.278Z,7.89
2019-04-22T23:40:40.100Z,7.78
2019-04-22T23:43:23.669Z,7.92
2019-04-22T23:45:48.493Z,7.96
2019-04-22T23:48:11.682Z,7.91
2019-04-22T23:50:51.109Z,7.83
2019-04-22T23:56:11.091Z,7.96
2019-04-22T23:58:52.433Z,7.87
